Time;durP1;ratioP1;P1;durP2;ratioP2;P2;SDS_P1;SDS_P2;PMS_P1;PMS_P2;Temp;Humidity;BMP_temperature;BMP_pressure;BME280_temperature;BME280_humidity;BME280_pressure;Samples;Min_cycle;Max_cycle;Signal;HPM_P1;HPM_P2
2022/04/16 00:01:21;;;;;;;25.48;19.20;;;8.00;99.90;;;;;;5052528;28;20041;-79
2022/04/16 00:03:46;;;;;;;21.85;18.83;;;7.90;99.90;;;;;;5055537;28;20045;-79
2022/04/16 00:06:12;;;;;;;21.42;18.15;;;7.80;99.90;;;;;;5036777;28;20063;-79
2022/04/16 00:08:37;;;;;;;23.50;19.48;;;7.80;99.90;;;;;;5053494;28;20045;-79
2022/04/16 00:11:05;;;;;;;23.48;18.90;;;7.70;99.90;;;;;;5036754;28;20108;-79
2022/04/16 00:13:32;;;;;;;24.40;19.25;;;7.60;99.90;;;;;;5053739;28;20167;-80
2022/04/16 00:15:58;;;;;;;20.23;17.75;;;7.50;99.90;;;;;;5052265;28;20048;-79
2022/04/16 00:18:24;;;;;;;23.77;18.92;;;7.50;99.90;;;;;;5045831;28;20049;-79
2022/04/16 00:20:51;;;;;;;22.15;18.30;;;7.40;99.90;;;;;;5062535;22;20064;-74
2022/04/16 00:23:21;;;;;;;25.67;18.75;;;7.30;99.90;;;;;;5071849;28;20094;-74
2022/04/16 00:25:50;;;;;;;21.45;18.25;;;7.30;99.90;;;;;;5055855;28;20451;-74
2022/04/16 00:28:16;;;;;;;22.23;19.05;;;7.20;99.90;;;;;;5073014;28;20048;-74
2022/04/16 00:30:41;;;;;;;21.70;18.17;;;7.10;99.90;;;;;;5072121;28;20040;-74
2022/04/16 00:33:08;;;;;;;23.30;19.02;;;7.10;99.90;;;;;;5055184;28;20055;-74
2022/04/16 00:35:34;;;;;;;24.95;18.45;;;7.00;99.90;;;;;;5063608;28;20044;-74
2022/04/16 00:38:00;;;;;;;23.75;18.05;;;6.90;99.90;;;;;;5066559;28;20048;-74
2022/04/16 00:40:25;;;;;;;20.95;18.55;;;6.90;99.90;;;;;;5072498;28;20051;-74
2022/04/16 00:42:51;;;;;;;22.88;18.83;;;6.80;99.90;;;;;;5055647;28;20063;-75
2022/04/16 00:45:17;;;;;;;23.05;18.55;;;6.80;99.90;;;;;;5072469;28;20044;-75
2022/04/16 00:47:45;;;;;;;25.48;18.27;;;6.80;99.90;;;;;;5072650;28;20611;-75
2022/04/16 00:50:12;;;;;;;24.67;20.30;;;6.70;99.90;;;;;;5070671;28;20052;-74
2022/04/16 00:52:38;;;;;;;25.77;20.58;;;6.60;99.90;;;;;;5055624;28;20099;-75
2022/04/16 00:55:06;;;;;;;24.27;20.15;;;6.60;99.90;;;;;;5072008;28;20105;-75
2022/04/16 00:57:32;;;;;;;28.05;22.17;;;6.50;99.90;;;;;;5061600;28;20052;-74
2022/04/16 01:00:00;;;;;;;24.30;20.70;;;6.40;99.90;;;;;;5063390;28;20098;-74
2022/04/16 01:02:26;;;;;;;23.65;20.35;;;6.40;99.90;;;;;;5051006;28;20045;-74
2022/04/16 01:04:52;;;;;;;24.50;20.02;;;6.30;99.90;;;;;;5070495;28;20047;-74
2022/04/16 01:07:22;;;;;;;27.83;21.58;;;6.30;99.90;;;;;;5066076;28;20048;-74
2022/04/16 01:09:48;;;;;;;30.67;21.85;;;6.20;99.90;;;;;;5072383;28;20378;-74
2022/04/16 01:12:14;;;;;;;28.60;22.73;;;6.20;99.90;;;;;;5071689;28;20062;-74
2022/04/16 01:14:40;;;;;;;27.77;21.77;;;6.10;99.90;;;;;;5056820;28;20166;-74
2022/04/16 01:17:05;;;;;;;32.28;23.17;;;6.10;99.90;;;;;;5046325;28;20052;-74
2022/04/16 01:19:31;;;;;;;29.13;22.90;;;6.10;99.90;;;;;;5066137;28;20048;-74
2022/04/16 01:21:58;;;;;;;26.90;20.80;;;6.00;99.90;;;;;;5063014;28;20113;-74
2022/04/16 01:24:23;;;;;;;27.98;21.92;;;6.00;99.90;;;;;;5062858;28;20044;-74
2022/04/16 01:26:51;;;;;;;27.00;21.33;;;6.00;99.90;;;;;;5065979;28;20039;-74
2022/04/16 01:29:17;;;;;;;29.40;22.55;;;5.90;99.90;;;;;;5069289;28;20044;-74
2022/04/16 01:31:43;;;;;;;27.70;22.10;;;5.90;99.90;;;;;;5052338;28;20037;-74
2022/04/16 01:34:08;;;;;;;27.17;21.80;;;5.90;99.90;;;;;;5067668;28;20044;-74
2022/04/16 01:36:34;;;;;;;25.45;20.63;;;5.90;99.90;;;;;;5054659;28;20075;-74
2022/04/16 01:39:01;;;;;;;31.67;23.17;;;5.80;99.90;;;;;;5067031;28;20482;-74
2022/04/16 01:41:28;;;;;;;30.85;24.95;;;5.80;99.90;;;;;;5053493;28;20124;-74
2022/04/16 01:43:56;;;;;;;34.88;23.70;;;5.80;99.90;;;;;;5071366;28;20037;-74
2022/04/16 01:46:21;;;;;;;34.35;24.13;;;5.70;99.90;;;;;;5070718;28;20047;-74
2022/04/16 01:48:49;;;;;;;32.50;23.75;;;5.70;99.90;;;;;;5071106;28;20123;-74
2022/04/16 01:51:18;;;;;;;31.10;22.98;;;5.70;99.90;;;;;;5068800;28;21045;-74
2022/04/16 01:53:44;;;;;;;27.58;22.42;;;5.70;99.90;;;;;;5070094;28;20036;-74
2022/04/16 01:56:10;;;;;;;25.40;22.00;;;5.70;99.90;;;;;;5067957;28;20041;-74
2022/04/16 01:58:38;;;;;;;30.98;23.83;;;5.70;99.90;;;;;;5070186;28;20093;-74
2022/04/16 02:01:05;;;;;;;32.58;23.73;;;5.60;99.90;;;;;;5071229;28;20040;-74
2022/04/16 02:03:34;;;;;;;27.20;22.90;;;5.60;99.90;;;;;;5070889;28;20051;-74
2022/04/16 02:06:00;;;;;;;34.05;25.83;;;5.60;99.90;;;;;;5069863;28;20051;-74
2022/04/16 02:08:26;;;;;;;32.75;25.75;;;5.60;99.90;;;;;;5068187;28;20044;-74
2022/04/16 02:10:52;;;;;;;29.10;24.23;;;5.50;99.90;;;;;;5058937;28;20046;-74
2022/04/16 02:13:17;;;;;;;32.78;25.98;;;5.60;99.90;;;;;;5052906;28;20164;-74
2022/04/16 02:15:43;;;;;;;36.97;26.60;;;5.60;99.90;;;;;;5063060;28;20040;-74
2022/04/16 02:18:08;;;;;;;33.67;24.92;;;5.70;99.90;;;;;;5069017;28;20448;-74
2022/04/16 02:20:36;;;;;;;37.33;28.35;;;5.70;99.90;;;;;;5060528;28;20082;-74
2022/04/16 02:23:02;;;;;;;36.80;27.23;;;5.80;99.90;;;;;;5053205;28;20053;-74
2022/04/16 02:25:28;;;;;;;38.65;27.08;;;5.80;99.90;;;;;;5069502;28;20083;-74
2022/04/16 02:27:53;;;;;;;40.25;27.85;;;5.90;99.90;;;;;;5069037;28;20036;-74
2022/04/16 02:30:19;;;;;;;41.13;29.48;;;6.00;99.90;;;;;;5053686;28;20040;-74
2022/04/16 02:32:53;;;;;;;36.80;28.02;;;6.00;99.90;;;;;;5062330;28;20064;-74
2022/04/16 02:35:20;;;;;;;36.45;27.45;;;6.10;99.90;;;;;;5051088;28;20040;-74
2022/04/16 02:37:46;;;;;;;36.53;28.20;;;6.20;99.90;;;;;;5067616;28;20412;-74
2022/04/16 02:40:13;;;;;;;34.58;26.35;;;6.20;99.90;;;;;;5067313;28;20056;-74
2022/04/16 02:42:41;;;;;;;38.15;28.38;;;6.30;99.90;;;;;;5069507;28;20046;-74
2022/04/16 02:47:53;;;;;;;35.63;27.33;;;6.40;99.90;;;;;;5068004;28;20052;-74
2022/04/16 02:50:20;;;;;;;38.35;27.90;;;6.50;99.90;;;;;;5060934;28;20036;-74
2022/04/16 02:52:48;;;;;;;33.60;25.73;;;6.60;99.90;;;;;;5047974;28;20068;-74
2022/04/16 02:55:17;;;;;;;36.17;27.10;;;6.60;99.90;;;;;;5065420;28;20086;-74
2022/04/16 02:57:43;;;;;;;38.13;28.65;;;6.80;99.90;;;;;;5067000;28;20040;-74
2022/04/16 03:00:11;;;;;;;37.88;28.15;;;6.90;99.90;;;;;;5059462;28;20093;-74
2022/04/16 03:02:37;;;;;;;33.30;25.38;;;6.90;99.90;;;;;;5065616;28;20450;-74
2022/04/16 03:05:06;;;;;;;36.67;26.80;;;7.00;99.90;;;;;;5062138;28;20053;-74
2022/04/16 03:07:32;;;;;;;33.58;26.52;;;7.10;99.90;;;;;;5052294;28;20036;-74
2022/04/16 03:09:57;;;;;;;36.22;27.85;;;7.10;99.90;;;;;;5065456;28;20402;-74
2022/04/16 03:12:23;;;;;;;34.88;27.98;;;7.20;99.90;;;;;;5058352;28;20048;-74
2022/04/16 03:17:33;;;;;;;34.63;27.85;;;7.40;99.90;;;;;;5068302;28;20037;-74
2022/04/16 03:20:07;;;;;;;36.88;28.23;;;7.50;99.90;;;;;;5063281;28;20044;-74
2022/04/16 03:22:34;;;;;;;37.15;30.10;;;7.50;99.90;;;;;;5061998;28;20494;-74
2022/04/16 03:25:03;;;;;;;38.17;31.15;;;7.60;99.90;;;;;;5050231;28;20047;-74
2022/04/16 03:27:28;;;;;;;37.88;30.60;;;7.70;99.90;;;;;;5045494;28;20044;-74
2022/04/16 03:29:54;;;;;;;37.60;30.95;;;7.70;99.90;;;;;;5048748;28;20550;-73
2022/04/16 03:32:19;;;;;;;37.63;31.00;;;7.70;99.90;;;;;;5067731;28;20554;-74
2022/04/16 03:34:45;;;;;;;36.63;31.05;;;7.80;99.90;;;;;;5050759;28;20451;-74
2022/04/16 03:37:11;;;;;;;39.80;31.40;;;7.80;99.90;;;;;;5066209;28;20453;-74
2022/04/16 03:39:36;;;;;;;39.53;31.75;;;7.80;99.90;;;;;;5067910;28;20036;-74
2022/04/16 03:42:02;;;;;;;40.03;32.97;;;7.90;99.90;;;;;;5067185;28;20036;-74
2022/04/16 03:44:27;;;;;;;40.58;33.17;;;7.90;99.90;;;;;;5064931;28;20040;-74
2022/04/16 03:46:53;;;;;;;39.45;32.05;;;7.90;99.90;;;;;;5068665;28;20040;-74
2022/04/16 03:49:18;;;;;;;40.80;32.25;;;7.90;99.90;;;;;;5066107;28;20044;-74
2022/04/16 03:51:44;;;;;;;38.90;32.67;;;7.90;99.90;;;;;;5064093;28;20067;-74
2022/04/16 04:02:22;;;;;;;38.53;31.40;;;8.00;99.90;;;;;;5065455;28;20128;-74
2022/04/16 04:04:49;;;;;;;41.60;32.88;;;8.00;99.90;;;;;;5059149;28;20120;-74
2022/04/16 04:07:15;;;;;;;43.58;36.22;;;8.10;99.90;;;;;;5067135;28;20040;-74
2022/04/16 04:09:40;;;;;;;45.75;36.30;;;8.10;99.90;;;;;;5062773;28;20094;-74
2022/04/16 04:12:12;;;;;;;42.05;34.08;;;8.10;99.90;;;;;;5059085;28;20067;-74
2022/04/16 04:14:39;;;;;;;35.40;29.60;;;8.10;99.90;;;;;;5067656;28;20378;-74
2022/04/16 04:17:07;;;;;;;42.67;33.75;;;8.10;99.90;;;;;;5067521;28;20056;-74
2022/04/16 04:19:36;;;;;;;39.90;32.47;;;8.10;99.90;;;;;;5065067;28;20033;-74
2022/04/16 04:22:03;;;;;;;39.80;31.50;;;8.20;99.90;;;;;;5064672;28;20410;-74
2022/04/16 04:24:29;;;;;;;39.72;32.88;;;8.10;99.90;;;;;;5067855;28;20375;-74
2022/04/16 04:26:56;;;;;;;39.25;33.85;;;8.20;99.90;;;;;;5068523;28;20093;-74
2022/04/16 04:29:22;;;;;;;41.05;33.20;;;8.10;99.90;;;;;;5067380;28;20045;-74
2022/04/16 04:31:47;;;;;;;43.70;35.70;;;8.20;99.90;;;;;;5063133;28;20063;-75
2022/04/16 04:34:13;;;;;;;43.08;35.40;;;8.20;99.90;;;;;;5069114;28;20047;-75
2022/04/16 04:36:38;;;;;;;44.35;34.47;;;8.10;99.90;;;;;;5069012;28;20370;-75
2022/04/16 04:39:04;;;;;;;39.90;31.95;;;8.10;99.90;;;;;;5060070;28;20398;-75
2022/04/16 04:41:29;;;;;;;36.75;31.23;;;8.00;99.90;;;;;;5048986;28;20493;-75
2022/04/16 04:43:55;;;;;;;33.30;27.90;;;8.00;99.90;;;;;;5067864;28;20040;-75
2022/04/16 04:46:20;;;;;;;28.70;25.33;;;8.00;99.90;;;;;;5067163;28;20056;-75
2022/04/16 04:48:46;;;;;;;28.70;24.55;;;8.00;99.90;;;;;;5054912;28;20032;-75
2022/04/16 04:51:12;;;;;;;25.98;21.35;;;8.00;99.90;;;;;;5049356;28;20064;-75
2022/04/16 04:53:38;;;;;;;27.58;20.92;;;8.00;99.90;;;;;;5062472;28;20044;-75
2022/04/16 04:56:04;;;;;;;23.48;19.25;;;8.00;99.90;;;;;;5069542;28;20101;-75
2022/04/16 04:58:30;;;;;;;24.75;19.88;;;7.90;99.90;;;;;;5065011;28;20387;-74
2022/04/16 05:00:55;;;;;;;22.45;18.55;;;8.00;99.90;;;;;;5049502;28;20047;-74
2022/04/16 05:03:21;;;;;;;23.70;18.05;;;7.90;99.90;;;;;;5063074;28;20041;-74
2022/04/16 05:05:47;;;;;;;22.35;18.40;;;7.90;99.90;;;;;;5063501;28;20123;-75
2022/04/16 05:08:13;;;;;;;20.77;16.73;;;7.90;99.90;;;;;;5065013;28;20501;-75
2022/04/16 05:10:38;;;;;;;24.55;17.55;;;7.90;99.90;;;;;;5065950;28;20044;-75
2022/04/16 05:13:04;;;;;;;23.50;17.02;;;7.90;99.90;;;;;;5070231;28;20047;-74
2022/04/16 05:15:29;;;;;;;22.60;15.70;;;7.90;99.90;;;;;;5058595;28;20048;-74
2022/04/16 05:17:55;;;;;;;19.42;15.63;;;8.00;99.90;;;;;;5070326;28;20115;-74
2022/04/16 05:20:21;;;;;;;19.38;16.30;;;7.90;99.90;;;;;;5071530;28;20079;-74
2022/04/16 05:22:47;;;;;;;20.00;15.77;;;7.90;99.90;;;;;;5054193;28;20048;-74
2022/04/16 05:25:12;;;;;;;16.73;14.82;;;7.90;99.90;;;;;;5071665;28;20463;-74
2022/04/16 05:27:38;;;;;;;20.27;14.95;;;7.90;99.90;;;;;;5064590;28;20075;-75
2022/04/16 05:32:34;;;;;;;17.98;15.55;;;8.00;99.90;;;;;;5070971;28;20063;-75
2022/04/16 05:35:00;;;;;;;20.25;15.77;;;8.00;99.90;;;;;;5068704;28;20154;-75
2022/04/16 05:37:25;;;;;;;19.02;15.85;;;8.00;99.90;;;;;;5071339;28;20533;-75
2022/04/16 05:39:51;;;;;;;17.52;14.55;;;8.00;99.90;;;;;;5070611;28;20044;-74
2022/04/16 05:42:18;;;;;;;17.55;14.43;;;8.10;99.90;;;;;;5053257;28;20478;-74
2022/04/16 05:44:43;;;;;;;19.27;13.68;;;8.10;99.90;;;;;;5068720;28;20040;-75
2022/04/16 05:47:09;;;;;;;19.65;13.15;;;8.40;99.90;;;;;;5071149;28;20047;-74
2022/04/16 05:49:34;;;;;;;16.95;13.50;;;8.80;99.90;;;;;;5071295;28;20052;-75
2022/04/16 05:52:00;;;;;;;17.20;13.25;;;8.80;99.90;;;;;;5049401;28;20048;-74
2022/04/16 05:54:26;;;;;;;18.50;14.18;;;8.70;99.90;;;;;;5050596;28;20044;-75
2022/04/16 05:56:53;;;;;;;15.95;12.30;;;8.60;99.90;;;;;;5051084;28;20047;-75
2022/04/16 05:59:18;;;;;;;16.67;13.18;;;8.80;99.90;;;;;;5071085;28;20040;-74
2022/04/16 06:01:45;;;;;;;17.77;14.25;;;8.90;99.90;;;;;;5069446;28;20044;-75
2022/04/16 06:04:11;;;;;;;19.55;15.13;;;9.80;99.90;;;;;;5054435;28;20601;-75
2022/04/16 06:06:37;;;;;;;21.20;14.50;;;10.00;99.90;;;;;;5071082;28;20238;-75
2022/04/16 06:09:03;;;;;;;17.77;14.88;;;9.90;99.90;;;;;;5044925;28;20040;-74
2022/04/16 06:11:30;;;;;;;19.55;15.98;;;9.70;99.90;;;;;;5067292;28;20385;-75
2022/04/16 06:13:55;;;;;;;22.58;16.85;;;9.50;99.90;;;;;;5067426;28;20052;-75
2022/04/16 06:16:21;;;;;;;20.42;13.65;;;10.00;99.90;;;;;;5069084;28;20042;-75
2022/04/16 06:18:46;;;;;;;15.38;12.57;;;10.60;99.90;;;;;;5070876;28;20373;-75
2022/04/16 06:21:12;;;;;;;15.60;12.50;;;10.80;99.90;;;;;;5070088;28;20053;-75
2022/04/16 06:23:37;;;;;;;16.10;11.98;;;11.30;99.90;;;;;;5070915;28;20048;-75
2022/04/16 06:26:03;;;;;;;16.15;12.23;;;12.10;99.90;;;;;;5062096;28;20470;-75
2022/04/16 06:28:29;;;;;;;13.30;11.27;;;13.00;99.90;;;;;;5070357;28;20452;-75
2022/04/16 06:30:55;;;;;;;14.73;11.38;;;13.70;99.90;;;;;;5067961;28;20076;-75
2022/04/16 06:33:20;;;;;;;12.43;10.85;;;14.40;99.90;;;;;;5070319;28;20079;-74
2022/04/16 06:35:46;;;;;;;14.73;10.30;;;14.90;99.90;;;;;;5054072;28;20067;-75
2022/04/16 06:38:12;;;;;;;12.20;9.75;;;15.50;99.60;;;;;;5053540;28;20123;-75
2022/04/16 06:40:37;;;;;;;13.55;10.50;;;16.00;96.70;;;;;;5070529;28;20470;-75
2022/04/16 06:43:03;;;;;;;11.82;9.82;;;16.80;95.80;;;;;;5068575;28;20083;-75
2022/04/16 06:45:30;;;;;;;11.65;9.20;;;17.00;90.60;;;;;;5061514;28;20040;-75
2022/04/16 06:47:55;;;;;;;11.85;9.90;;;17.50;91.90;;;;;;5065408;28;20044;-75
2022/04/16 06:50:21;;;;;;;13.57;10.13;;;16.80;90.70;;;;;;5070066;28;20051;-75
2022/04/16 06:52:47;;;;;;;14.52;9.52;;;16.20;88.90;;;;;;5069926;28;20072;-75
2022/04/16 06:55:12;;;;;;;12.32;10.40;;;16.10;91.50;;;;;;5068279;28;20071;-75
2022/04/16 06:57:38;;;;;;;12.13;8.80;;;16.20;92.50;;;;;;5067571;28;20032;-75
2022/04/16 07:00:07;;;;;;;10.48;8.73;;;16.70;90.20;;;;;;5068675;28;20037;-75
2022/04/16 07:02:33;;;;;;;12.60;9.52;;;16.80;87.80;;;;;;5060172;28;20037;-75
2022/04/16 07:04:59;;;;;;;11.90;9.23;;;17.40;82.30;;;;;;5068051;28;20036;-73
2022/04/16 07:07:24;;;;;;;9.68;8.25;;;17.50;88.70;;;;;;5069696;28;20090;-74
2022/04/16 07:09:50;;;;;;;9.15;7.40;;;17.80;81.50;;;;;;5049669;28;20045;-75
2022/04/16 07:12:15;;;;;;;8.88;7.78;;;17.70;82.80;;;;;;5057553;28;20043;-74
2022/04/16 07:14:41;;;;;;;8.25;6.85;;;18.30;79.60;;;;;;5063330;28;20125;-74
2022/04/16 07:17:07;;;;;;;7.50;5.75;;;18.80;77.40;;;;;;5060644;28;20041;-73
2022/04/16 07:19:34;;;;;;;7.85;6.60;;;18.30;69.30;;;;;;5060843;28;20047;-74
2022/04/16 07:22:00;;;;;;;9.35;6.25;;;17.80;65.20;;;;;;5060417;28;20052;-74
2022/04/16 07:24:26;;;;;;;7.45;6.03;;;17.90;68.40;;;;;;5069933;28;20045;-73
2022/04/16 07:26:54;;;;;;;6.55;5.82;;;18.20;68.50;;;;;;5067953;28;20037;-74
2022/04/16 07:29:24;;;;;;;7.05;5.35;;;18.50;67.20;;;;;;5069733;28;20044;-74
2022/04/16 07:31:50;;;;;;;6.50;5.47;;;18.10;62.20;;;;;;5064189;28;20052;-74
2022/04/16 07:34:16;;;;;;;6.60;5.65;;;18.00;68.10;;;;;;5064305;28;20519;-73
2022/04/16 07:36:42;;;;;;;8.25;5.90;;;17.60;67.60;;;;;;5068740;28;20071;-73
2022/04/16 07:39:08;;;;;;;6.93;6.13;;;17.20;63.10;;;;;;5069180;28;20071;-74
2022/04/16 07:41:33;;;;;;;7.15;6.40;;;17.30;67.30;;;;;;5067573;28;20688;-74
2022/04/16 07:44:03;;;;;;;7.35;6.50;;;17.80;72.20;;;;;;5060252;28;20047;-74
2022/04/16 07:46:29;;;;;;;9.43;5.82;;;18.10;70.00;;;;;;5067121;28;20094;-74
2022/04/16 07:48:57;;;;;;;13.55;7.07;;;17.60;72.10;;;;;;5064221;28;20040;-75
2022/04/16 07:51:23;;;;;;;9.60;7.05;;;16.50;70.40;;;;;;5062414;28;20040;-73
2022/04/16 07:53:48;;;;;;;10.38;7.60;;;15.70;83.90;;;;;;5045694;28;20093;-74
2022/04/16 07:56:14;;;;;;;10.65;8.30;;;14.90;87.60;;;;;;5067832;28;20665;-74
2022/04/16 07:58:40;;;;;;;10.60;7.63;;;14.20;93.90;;;;;;5063000;28;20055;-78
2022/04/16 08:01:06;;;;;;;9.52;7.80;;;13.70;97.10;;;;;;5047467;28;20055;-74
2022/04/16 08:03:32;;;;;;;9.45;7.38;;;13.30;99.20;;;;;;5045501;28;20085;-74
2022/04/16 08:05:58;;;;;;;10.52;7.25;;;13.20;99.00;;;;;;5052756;28;20029;-73
2022/04/16 08:08:23;;;;;;;8.88;6.80;;;13.00;99.90;;;;;;5068523;28;20186;-73
2022/04/16 08:10:51;;;;;;;7.95;6.93;;;12.80;99.90;;;;;;5065408;28;20048;-73
2022/04/16 08:13:18;;;;;;;8.07;6.22;;;12.60;99.90;;;;;;5068249;28;20037;-73
2022/04/16 08:15:47;;;;;;;8.73;6.65;;;12.30;99.90;;;;;;5071621;28;20045;-73
2022/04/16 08:18:13;;;;;;;8.82;6.35;;;12.20;98.20;;;;;;5067841;28;20033;-73
2022/04/16 08:20:39;;;;;;;6.40;5.22;;;12.10;98.10;;;;;;5070090;28;20047;-73
2022/04/16 08:23:06;;;;;;;8.45;5.75;;;12.00;99.90;;;;;;5072026;28;20053;-74
2022/04/16 08:27:58;;;;;;;8.60;5.78;;;11.90;99.90;;;;;;5062439;28;20048;-73
2022/04/16 08:30:24;;;;;;;8.05;5.18;;;12.10;99.90;;;;;;5062928;28;20042;-73
2022/04/16 08:32:50;;;;;;;6.90;5.00;;;11.90;99.20;;;;;;5071126;28;20096;-73
2022/04/16 08:35:17;;;;;;;7.18;5.68;;;12.00;98.80;;;;;;5047089;28;20077;-73
2022/04/16 08:37:43;;;;;;;7.03;5.57;;;12.00;99.90;;;;;;5052595;28;20063;-73
2022/04/16 08:40:10;;;;;;;5.90;5.30;;;11.80;99.90;;;;;;5041794;28;20631;-73
2022/04/16 08:42:37;;;;;;;7.03;5.10;;;11.90;99.90;;;;;;5057646;28;20373;-74
2022/04/16 08:45:05;;;;;;;7.78;5.32;;;11.90;99.90;;;;;;5058926;28;20111;-74
2022/04/16 08:47:31;;;;;;;6.43;4.68;;;12.20;99.90;;;;;;5071077;28;20500;-73
2022/04/16 08:49:59;;;;;;;7.20;4.38;;;12.20;97.30;;;;;;5067905;28;20048;-73
2022/04/16 08:52:29;;;;;;;6.35;4.55;;;12.30;99.90;;;;;;5066353;28;20032;-73
2022/04/16 08:54:56;;;;;;;7.47;4.28;;;12.10;99.90;;;;;;5067885;28;20390;-73
2022/04/16 08:57:22;;;;;;;5.97;4.20;;;12.20;96.10;;;;;;5068967;28;20129;-74
2022/04/16 08:59:51;;;;;;;5.63;3.90;;;12.20;97.60;;;;;;5065607;28;20494;-75
2022/04/16 09:02:22;;;;;;;5.60;3.88;;;12.20;99.90;;;;;;5062988;28;20065;-74
2022/04/16 09:04:49;;;;;;;4.50;3.15;;;12.40;97.00;;;;;;5067346;28;20051;-75
2022/04/16 09:07:15;;;;;;;3.33;2.53;;;12.40;98.40;;;;;;5070588;28;20044;-75
2022/04/16 09:09:41;;;;;;;5.32;2.90;;;12.50;99.90;;;;;;5069726;28;20036;-75
2022/04/16 09:12:17;;;;;;;4.55;3.05;;;12.40;78.40;;;;;;5057742;28;20036;-75
2022/04/16 09:14:44;;;;;;;4.35;3.08;;;12.40;84.50;;;;;;5058831;28;20414;-75
2022/04/16 09:17:10;;;;;;;5.53;2.83;;;12.40;89.90;;;;;;5066373;28;20128;-75
2022/04/16 09:19:35;;;;;;;4.35;3.05;;;12.40;93.10;;;;;;5064903;28;20106;-75
2022/04/16 09:22:01;;;;;;;4.65;2.80;;;12.50;91.80;;;;;;5048509;28;20053;-75
2022/04/16 09:24:26;;;;;;;4.63;3.20;;;12.50;90.00;;;;;;5060990;28;20040;-75
2022/04/16 09:26:53;;;;;;;3.15;2.65;;;12.60;97.50;;;;;;5069961;28;20041;-75
2022/04/16 09:29:19;;;;;;;4.93;2.80;;;12.70;98.20;;;;;;5066603;28;20059;-75
2022/04/16 09:31:46;;;;;;;4.88;2.65;;;12.50;89.40;;;;;;5064292;28;20047;-73
2022/04/16 09:34:21;;;;;;;2.58;2.25;;;12.60;91.70;;;;;;5063380;28;20448;-75
2022/04/16 09:36:47;;;;;;;3.45;2.30;;;12.80;83.00;;;;;;5068547;28;20128;-75
2022/04/16 09:39:14;;;;;;;6.25;2.13;;;12.70;96.10;;;;;;5060537;28;21793;-74
2022/04/16 09:41:41;;;;;;;3.67;2.25;;;12.70;78.60;;;;;;5062737;28;20076;-74
2022/04/16 09:44:18;;;;;;;1.95;1.70;;;12.80;90.20;;;;;;5061592;28;20045;-75
2022/04/16 09:46:47;;;;;;;2.22;1.73;;;12.70;68.50;;;;;;5066311;28;20051;-75
2022/04/16 09:49:14;;;;;;;3.78;2.20;;;12.70;94.10;;;;;;5061678;28;20036;-74
2022/04/16 09:51:44;;;;;;;2.75;1.90;;;12.80;81.80;;;;;;5064280;28;20044;-74
2022/04/16 09:54:11;;;;;;;2.13;1.20;;;12.90;82.60;;;;;;5062785;28;20043;-74
2022/04/16 09:56:38;;;;;;;2.38;1.13;;;13.00;64.60;;;;;;5052270;28;20138;-75
2022/04/16 09:59:08;;;;;;;5.78;1.25;;;13.00;87.00;;;;;;5066127;28;20048;-72
2022/04/16 10:01:38;;;;;;;1.40;1.17;;;12.90;56.60;;;;;;5048106;28;20041;-72
2022/04/16 10:04:06;;;;;;;3.67;1.08;;;13.00;65.00;;;;;;5052999;28;20033;-74
2022/04/16 10:06:32;;;;;;;2.85;1.40;;;13.00;67.10;;;;;;5051237;28;20040;-72
2022/04/16 10:09:00;;;;;;;3.08;1.70;;;13.30;87.30;;;;;;5046905;28;20644;-73
2022/04/16 10:14:30;;;;;;;1.35;1.08;;;13.60;91.30;;;;;;5079860;28;20048;-72
2022/04/16 10:17:15;;;;;;;2.10;1.27;;;13.70;85.30;;;;;;5064682;28;20354;-73
2022/04/16 10:19:48;;;;;;;1.88;1.20;;;13.90;93.80;;;;;;5067793;28;20465;-73
2022/04/16 10:22:25;;;;;;;1.42;1.05;;;13.90;69.20;;;;;;5064069;28;20049;-72
2022/04/16 10:24:53;;;;;;;2.30;1.02;;;13.90;67.10;;;;;;5046440;28;20040;-72
2022/04/16 10:27:27;;;;;;;1.92;1.13;;;13.70;57.10;;;;;;5050303;28;20162;-72
2022/04/16 10:30:03;;;;;;;2.13;1.10;;;13.60;62.00;;;;;;5058650;28;20036;-73
2022/04/16 10:32:42;;;;;;;1.40;1.00;;;13.80;75.10;;;;;;5065387;28;20040;-73
2022/04/16 10:35:13;;;;;;;2.10;1.10;;;13.90;91.70;;;;;;5069818;28;20048;-73
2022/04/16 10:37:41;;;;;;;3.08;0.80;;;14.10;76.50;;;;;;5063832;28;20044;-73
2022/04/16 10:40:21;;;;;;;1.75;0.80;;;14.00;54.20;;;;;;5062058;28;20594;-73
2022/04/16 10:42:48;;;;;;;0.90;0.63;;;14.00;65.40;;;;;;5068964;28;20149;-73
2022/04/16 10:45:14;;;;;;;1.25;0.70;;;14.00;63.10;;;;;;5067811;28;20032;-73
2022/04/16 10:47:41;;;;;;;3.10;0.90;;;14.20;75.90;;;;;;5066095;28;20386;-73
2022/04/16 10:50:15;;;;;;;1.60;0.75;;;14.20;80.70;;;;;;5061622;28;20105;-73
2022/04/16 10:52:52;;;;;;;1.23;0.70;;;14.30;70.10;;;;;;5067685;28;20551;-73
2022/04/16 10:55:20;;;;;;;1.40;0.70;;;14.20;52.10;;;;;;5052134;28;20049;-73
2022/04/16 10:57:56;;;;;;;0.95;0.57;;;14.20;53.30;;;;;;5069979;28;20048;-73
2022/04/16 11:00:21;;;;;;;0.60;0.55;;;14.40;81.60;;;;;;5068343;28;20048;-73
2022/04/16 11:02:47;;;;;;;0.90;0.77;;;14.50;80.10;;;;;;5053719;28;20067;-73
2022/04/16 11:05:12;;;;;;;0.70;0.57;;;14.30;55.80;;;;;;5051839;28;20036;-73
2022/04/16 11:07:40;;;;;;;1.70;0.70;;;14.30;51.90;;;;;;5069753;28;20052;-73
2022/04/16 11:10:06;;;;;;;1.27;0.80;;;14.20;48.50;;;;;;5069594;28;20085;-73
2022/04/16 11:12:32;;;;;;;1.58;0.57;;;14.30;61.00;;;;;;5047270;28;20119;-73
2022/04/16 11:14:58;;;;;;;1.95;0.68;;;14.00;51.60;;;;;;5062383;28;20135;-73
2022/04/16 11:17:24;;;;;;;2.20;0.68;;;14.20;56.70;;;;;;5065431;28;20055;-73
2022/04/16 11:19:59;;;;;;;0.88;0.60;;;14.30;56.30;;;;;;5063610;28;20040;-73
2022/04/16 11:22:25;;;;;;;1.35;0.77;;;14.20;51.60;;;;;;5066323;28;20040;-73
2022/04/16 11:24:51;;;;;;;1.58;0.80;;;14.10;50.50;;;;;;5069182;28;20128;-73
2022/04/16 11:35:57;;;;;;;1.85;0.80;;;14.90;78.10;;;;;;5063900;28;20053;-73
2022/04/16 11:38:37;;;;;;;1.70;0.90;;;14.70;57.80;;;;;;5068598;28;20056;-73
2022/04/16 11:41:05;;;;;;;2.90;0.82;;;14.80;63.60;;;;;;5042815;28;20051;-72
2022/04/16 11:43:33;;;;;;;1.02;0.93;;;14.70;62.30;;;;;;5044611;28;20041;-72
2022/04/16 11:46:01;;;;;;;1.63;0.75;;;15.00;83.20;;;;;;5069083;28;20371;-73
2022/04/16 11:48:27;;;;;;;0.73;0.55;;;15.10;79.80;;;;;;5067266;28;20032;-73
2022/04/16 11:50:53;;;;;;;1.05;0.80;;;15.00;47.60;;;;;;5054200;28;20149;-73
2022/04/16 11:53:19;;;;;;;2.45;1.13;;;15.10;63.60;;;;;;5073200;28;20489;-73
2022/04/16 11:55:46;;;;;;;0.68;0.68;;;15.00;56.70;;;;;;5073534;28;20045;-73
2022/04/16 11:58:12;;;;;;;1.00;0.80;;;15.10;63.10;;;;;;5073262;28;20051;-72
2022/04/16 12:00:51;;;;;;;1.67;1.00;;;15.30;74.20;;;;;;5073304;28;20040;-73
2022/04/16 12:03:20;;;;;;;0.80;0.70;;;15.40;69.30;;;;;;5065180;28;20028;-73
2022/04/16 12:05:47;;;;;;;4.72;1.00;;;15.40;55.00;;;;;;5053308;28;20117;-73
2022/04/16 12:08:14;;;;;;;2.97;0.90;;;15.60;76.70;;;;;;5045534;28;20033;-73
2022/04/16 12:10:43;;;;;;;3.72;1.10;;;15.70;68.70;;;;;;5070661;28;20051;-73
2022/04/16 12:13:10;;;;;;;1.80;0.80;;;15.60;76.10;;;;;;5067859;28;20068;-73
2022/04/16 12:15:41;;;;;;;1.02;0.98;;;15.70;58.50;;;;;;5067628;28;20043;-73
2022/04/16 12:18:12;;;;;;;3.35;1.13;;;15.30;47.30;;;;;;5072772;28;20072;-73
2022/04/16 12:20:42;;;;;;;0.95;0.80;;;15.50;66.70;;;;;;5068496;28;20040;-73
2022/04/16 12:23:13;;;;;;;3.05;0.75;;;15.60;66.60;;;;;;5072826;28;20056;-73
2022/04/16 12:25:39;;;;;;;1.13;0.75;;;15.60;69.30;;;;;;5066734;28;20481;-73
2022/04/16 12:28:10;;;;;;;1.60;0.80;;;15.80;77.30;;;;;;5072930;28;20368;-73
2022/04/16 12:30:37;;;;;;;2.25;0.80;;;15.90;59.70;;;;;;5067757;28;20119;-73
2022/04/16 12:33:11;;;;;;;2.70;0.60;;;15.70;55.30;;;;;;5065055;28;20040;-73
2022/04/16 12:38:10;;;;;;;0.90;0.83;;;15.80;70.30;;;;;;5089824;28;20052;-81
2022/04/16 12:40:35;;;;;;;1.60;0.82;;;15.70;63.90;;;;;;5092249;28;20048;-81
2022/04/16 12:43:02;;;;;;;1.85;0.70;;;15.60;48.40;;;;;;5089940;28;20044;-81
2022/04/16 12:45:32;;;;;;;1.15;0.80;;;15.40;46.50;;;;;;5076352;28;20036;-81
2022/04/16 12:47:58;;;;;;;1.02;0.70;;;15.30;49.70;;;;;;5075085;28;20040;-80
2022/04/16 12:50:26;;;;;;;2.05;0.82;;;15.30;53.90;;;;;;5087708;28;20036;-80
2022/04/16 12:52:52;;;;;;;1.80;0.90;;;15.30;53.30;;;;;;5093204;28;20168;-80
2022/04/16 12:55:18;;;;;;;1.48;0.90;;;15.30;50.00;;;;;;5091929;28;20039;-80
2022/04/16 12:57:44;;;;;;;4.50;1.00;;;15.30;55.50;;;;;;5078091;28;20382;-80
2022/04/16 13:00:14;;;;;;;3.22;0.75;;;15.60;68.50;;;;;;5087867;28;20398;-80
2022/04/16 13:02:42;;;;;;;1.33;0.80;;;15.60;56.30;;;;;;5075492;28;20067;-80
2022/04/16 13:05:12;;;;;;;1.35;0.90;;;15.50;45.50;;;;;;5077546;28;20044;-81
2022/04/16 13:07:39;;;;;;;1.65;0.88;;;15.60;66.80;;;;;;5093076;28;20090;-81
2022/04/16 13:10:06;;;;;;;1.52;0.95;;;15.50;54.00;;;;;;5091976;28;20389;-80
2022/04/16 13:12:32;;;;;;;1.17;0.80;;;15.50;58.20;;;;;;5092912;28;20127;-80